Terminal Aerodrome Forecast
Issued by NWS Brownsville, TX

Current Version | Previous Version | Text Only | Print | Product List | Glossary On
Versions: 1 2 3 4 5 6 7 8 9 10 11 12 13 14 15 16 17 18
230
FTUS44 KBRO 201138
TAFBRO
TAF
KBRO 201138Z 2012/2112 07004KT P6SM SCT029
      TEMPO 2012/2016 BKN030
     FM201800 12012G18KT P6SM BKN035
     FM210300 14010G16KT P6SM BKN025
     FM210700 14011G17KT P6SM BKN015=

USA.gov is the U.S. government's official web portal to all federal, state and local government web resources and services.